createdAt,value
2019-02-25T00:00:50.264Z,100603.95
2019-02-25T00:02:00.299Z,100590.85
2019-02-25T00:03:08.639Z,100590.03
2019-02-25T00:04:17.009Z,100588.82
2019-02-25T00:05:25.893Z,100587.59
2019-02-25T00:06:34.184Z,100587.59
2019-02-25T00:07:42.532Z,100591.95
2019-02-25T00:08:51.169Z,100585.83
2019-02-25T00:09:59.476Z,100579.25
2019-02-25T00:11:07.662Z,100581.11
2019-02-25T00:12:16.878Z,100587.69
2019-02-25T00:13:25.599Z,100585.47
2019-02-25T00:14:34.002Z,100578.08
2019-02-25T00:15:42.816Z,100581.11
2019-02-25T00:16:51.218Z,100579.39
2019-02-25T00:18:00.405Z,100580.30
2019-02-25T00:19:08.672Z,100579.39
2019-02-25T00:20:17.001Z,100578.98
2019-02-25T00:21:25.627Z,100583.34
2019-02-25T00:22:33.894Z,100586.88
2019-02-25T00:23:42.087Z,100585.61
2019-02-25T00:24:50.374Z,100587.78
2019-02-25T00:25:58.998Z,100587.78
2019-02-25T00:27:07.282Z,100598.26
2019-02-25T00:28:16.111Z,100591.69
2019-02-25T00:29:24.488Z,100591.23
2019-02-25T00:30:33.066Z,100590.33
2019-02-25T00:31:41.848Z,100589.42
2019-02-25T00:32:50.263Z,100587.69
2019-02-25T00:33:58.875Z,100589.05
2019-02-25T00:35:07.835Z,100589.51
2019-02-25T00:36:16.105Z,100588.11
2019-02-25T00:37:24.931Z,100582.88
2019-02-25T00:38:33.394Z,100591.64
2019-02-25T00:39:42.088Z,100583.79
2019-02-25T00:40:50.585Z,100590.82
2019-02-25T00:41:59.392Z,100593.45
2019-02-25T00:43:07.652Z,100589.09
2019-02-25T00:44:16.407Z,100583.93
2019-02-25T00:45:24.741Z,100578.67
2019-02-25T00:46:33.190Z,100583.02
2019-02-25T00:47:41.932Z,100582.16
2019-02-25T00:48:50.606Z,100577.81
2019-02-25T00:50:00.024Z,100569.42
2019-02-25T00:51:08.448Z,100565.91
2019-02-25T00:52:17.495Z,100559.75
2019-02-25T00:53:27.056Z,100560.20
2019-02-25T00:54:35.530Z,100561.11
2019-02-25T00:55:43.923Z,100564.15
2019-02-25T00:56:52.055Z,100564.55
2019-02-25T00:58:01.531Z,100563.61
2019-02-25T00:59:09.961Z,100561.43
2019-02-25T01:00:23.113Z,100564.92
2019-02-25T01:01:31.456Z,100565.38
2019-02-25T01:02:39.876Z,100564.97
2019-02-25T01:03:48.520Z,100561.92
2019-02-25T01:04:57.902Z,100555.34
2019-02-25T01:06:06.665Z,100549.63
2019-02-25T01:07:15.675Z,100547.00
2019-02-25T01:08:24.010Z,100542.15
2019-02-25T01:09:32.663Z,100539.06
2019-02-25T01:10:41.371Z,100539.11
2019-02-25T01:11:49.687Z,100539.97
2019-02-25T01:12:58.458Z,100545.19
2019-02-25T01:14:07.227Z,100543.47
2019-02-25T01:15:17.158Z,100540.38
2019-02-25T01:16:25.752Z,100543.92
2019-02-25T01:17:34.095Z,100544.33
2019-02-25T01:18:42.576Z,100543.88
2019-02-25T01:19:51.674Z,100546.91
2019-02-25T01:21:00.050Z,100546.91
2019-02-25T01:22:08.690Z,100542.50
2019-02-25T01:23:17.238Z,100537.97
2019-02-25T01:24:26.949Z,100537.50
2019-02-25T01:25:35.676Z,100546.12
2019-02-25T01:26:44.075Z,100538.63
2019-02-25T01:27:52.555Z,100536.86
2019-02-25T01:29:01.266Z,100542.97
2019-02-25T01:30:19.378Z,100545.15
2019-02-25T01:31:27.813Z,100543.34
2019-02-25T01:32:36.006Z,100545.92
2019-02-25T01:33:44.202Z,100547.22
2019-02-25T01:34:52.580Z,100542.82
2019-02-25T01:36:01.076Z,100539.23
2019-02-25T01:37:10.031Z,100543.54
2019-02-25T01:38:18.515Z,100538.27
2019-02-25T01:39:26.834Z,100543.53
2019-02-25T01:40:35.549Z,100538.73
2019-02-25T01:41:43.823Z,100546.22
2019-02-25T01:42:51.875Z,100542.27
2019-02-25T01:44:01.233Z,100544.45
2019-02-25T01:45:20.916Z,100541.77
2019-02-25T01:46:29.825Z,100543.95
2019-02-25T01:47:38.157Z,100542.63
2019-02-25T01:48:46.675Z,100550.92
2019-02-25T01:49:55.166Z,100546.56
2019-02-25T01:51:03.687Z,100548.80
2019-02-25T01:52:12.110Z,100545.72
2019-02-25T01:53:20.664Z,100544.45
2019-02-25T01:54:29.922Z,100540.50
2019-02-25T01:55:38.425Z,100535.19
2019-02-25T01:56:47.005Z,100537.01
2019-02-25T01:57:55.488Z,100529.56
2019-02-25T01:59:03.669Z,100532.25
2019-02-25T02:00:21.388Z,100533.61
2019-02-25T02:01:30.457Z,100544.59
2019-02-25T02:02:39.199Z,100552.03
2019-02-25T02:03:47.789Z,100552.03
2019-02-25T02:04:56.843Z,100552.89
2019-02-25T02:06:05.047Z,100551.53
2019-02-25T02:07:13.922Z,100539.69
2019-02-25T02:08:22.533Z,100544.45
2019-02-25T02:09:30.973Z,100546.17
2019-02-25T02:10:39.781Z,100538.73
2019-02-25T02:11:47.982Z,100542.23
2019-02-25T02:12:56.434Z,100544.41
2019-02-25T02:14:07.971Z,100540.89
2019-02-25T02:15:21.494Z,100544.84
2019-02-25T02:16:29.909Z,100539.13
2019-02-25T02:17:38.459Z,100541.21
2019-02-25T02:18:47.063Z,100545.97
2019-02-25T02:19:55.287Z,100536.76
2019-02-25T02:21:04.021Z,100540.23
2019-02-25T02:22:12.538Z,100534.97
2019-02-25T02:23:20.993Z,100535.84
2019-02-25T02:24:29.693Z,100536.30
2019-02-25T02:25:38.314Z,100534.56
2019-02-25T02:26:46.803Z,100527.64
2019-02-25T02:27:55.834Z,100525.52
2019-02-25T02:29:04.253Z,100520.72
2019-02-25T02:30:22.660Z,100523.80
2019-02-25T02:31:31.493Z,100523.95
2019-02-25T02:32:39.733Z,100528.36
2019-02-25T02:33:48.038Z,100522.73
2019-02-25T02:34:56.286Z,100513.62
2019-02-25T02:36:04.734Z,100517.58
2019-02-25T02:37:13.097Z,100518.48
2019-02-25T02:38:21.762Z,100515.85
2019-02-25T02:39:30.367Z,100516.36
2019-02-25T02:40:38.969Z,100518.58
2019-02-25T02:42:13.852Z,100519.48
2019-02-25T02:43:22.305Z,100522.12
2019-02-25T02:44:30.696Z,100523.04
2019-02-25T02:45:52.785Z,100521.77
2019-02-25T02:47:20.643Z,100519.23
2019-02-25T02:48:42.807Z,100519.70
2019-02-25T02:49:51.118Z,100519.74
2019-02-25T02:50:59.669Z,100513.62
2019-02-25T02:52:08.368Z,100509.27
2019-02-25T02:53:17.410Z,100511.94
2019-02-25T02:54:26.162Z,100512.84
2019-02-25T02:55:34.850Z,100513.76
2019-02-25T02:56:43.208Z,100519.88
2019-02-25T02:57:51.778Z,100516.80
2019-02-25T02:59:00.350Z,100515.07
2019-02-25T03:00:18.431Z,100515.03
2019-02-25T03:01:26.708Z,100504.50
2019-02-25T03:02:35.432Z,100508.45
2019-02-25T03:03:43.826Z,100511.98
2019-02-25T03:04:52.411Z,100500.61
2019-02-25T03:06:01.060Z,100509.37
2019-02-25T03:07:09.722Z,100511.14
2019-02-25T03:08:18.059Z,100504.61
2019-02-25T03:09:26.433Z,100497.63
2019-02-25T03:10:34.991Z,100499.39
2019-02-25T03:11:43.246Z,100490.19
2019-02-25T03:12:51.872Z,100490.23
2019-02-25T03:14:00.431Z,100484.97
2019-02-25T03:15:13.346Z,100481.93
2019-02-25T03:16:21.732Z,100484.16
2019-02-25T03:17:30.125Z,100487.70
2019-02-25T03:18:39.046Z,100482.48
2019-02-25T03:19:47.084Z,100473.33
2019-02-25T03:20:55.626Z,100473.34
2019-02-25T03:22:04.028Z,100474.70
2019-02-25T03:23:14.250Z,100481.69
2019-02-25T03:24:22.595Z,100482.94
2019-02-25T03:25:31.165Z,100477.23
2019-02-25T03:26:39.596Z,100477.23
2019-02-25T03:27:48.116Z,100477.23
2019-02-25T03:28:56.814Z,100469.29
2019-02-25T03:30:12.468Z,100468.38
2019-02-25T03:31:21.013Z,100470.97
2019-02-25T03:32:29.816Z,100468.38
2019-02-25T03:33:38.234Z,100480.67
2019-02-25T03:34:47.957Z,100479.81
2019-02-25T03:35:56.423Z,100477.18
2019-02-25T03:37:04.869Z,100478.05
2019-02-25T03:38:13.596Z,100472.33
2019-02-25T03:39:21.783Z,100478.86
2019-02-25T03:40:30.473Z,100480.61
2019-02-25T03:41:39.089Z,100478.84
2019-02-25T03:42:47.591Z,100487.96
2019-02-25T03:43:56.305Z,100485.78
2019-02-25T03:45:06.559Z,100489.73
2019-02-25T03:46:14.668Z,100490.64
2019-02-25T03:47:22.950Z,100485.78
2019-02-25T03:48:31.467Z,100497.58
2019-02-25T03:49:40.440Z,100500.16
2019-02-25T03:50:48.742Z,100503.25
2019-02-25T03:51:57.250Z,100501.47
2019-02-25T03:53:05.639Z,100500.06
2019-02-25T03:54:14.214Z,100500.06
2019-02-25T03:55:24.043Z,100505.27
2019-02-25T03:56:32.455Z,100502.23
2019-02-25T03:57:41.663Z,100492.62
2019-02-25T03:58:49.840Z,100491.70
2019-02-25T03:59:58.169Z,100486.91
2019-02-25T04:01:06.499Z,100475.11
2019-02-25T04:02:14.837Z,100473.41
2019-02-25T04:03:23.559Z,100493.63
2019-02-25T04:04:31.977Z,100488.41
2019-02-25T04:05:40.600Z,100487.10
2019-02-25T04:06:48.906Z,100485.83
2019-02-25T04:07:57.134Z,100489.77
2019-02-25T04:09:07.239Z,100493.27
2019-02-25T04:10:16.937Z,100489.32
2019-02-25T04:11:25.770Z,100486.69
2019-02-25T04:12:34.084Z,100484.06
2019-02-25T04:13:42.598Z,100476.22
2019-02-25T04:14:50.791Z,100483.66
2019-02-25T04:15:59.163Z,100476.69
2019-02-25T04:17:07.200Z,100480.63
2019-02-25T04:18:16.177Z,100486.73
2019-02-25T04:19:24.213Z,100488.87
2019-02-25T04:20:33.060Z,100488.41
2019-02-25T04:21:41.567Z,100489.69
2019-02-25T04:22:50.044Z,100483.56
2019-02-25T04:23:58.338Z,100494.04
2019-02-25T04:25:07.683Z,100478.70
2019-02-25T04:26:16.193Z,100470.00
2019-02-25T04:27:24.603Z,100472.27
2019-02-25T04:28:32.894Z,100471.83
2019-02-25T04:29:41.482Z,100466.57
2019-02-25T04:30:49.684Z,100470.95
2019-02-25T04:31:58.064Z,100473.13
2019-02-25T04:33:06.387Z,100471.77
2019-02-25T04:34:14.573Z,100468.64
2019-02-25T04:35:24.683Z,100479.11
2019-02-25T04:36:33.187Z,100471.27
2019-02-25T04:37:41.759Z,100470.86
2019-02-25T04:38:50.103Z,100469.95
2019-02-25T04:39:58.445Z,100468.69
2019-02-25T04:41:07.258Z,100467.82
2019-02-25T04:42:15.766Z,100463.42
2019-02-25T04:43:23.868Z,100458.66
2019-02-25T04:44:32.460Z,100455.19
2019-02-25T04:45:41.222Z,100455.73
2019-02-25T04:46:50.073Z,100460.17
2019-02-25T04:47:57.998Z,100462.81
2019-02-25T04:49:06.431Z,100459.72
2019-02-25T04:50:14.999Z,100454.46
2019-02-25T04:51:23.185Z,100446.58
2019-02-25T04:52:31.811Z,100451.38
2019-02-25T04:53:40.318Z,100452.30
2019-02-25T04:54:48.627Z,100454.06
2019-02-25T04:55:57.180Z,100452.84
2019-02-25T04:57:05.436Z,100453.34
2019-02-25T04:58:13.483Z,100456.03
2019-02-25T04:59:21.701Z,100454.35
2019-02-25T05:00:29.928Z,100446.52
2019-02-25T05:01:38.064Z,100445.25
2019-02-25T05:02:46.468Z,100447.06
2019-02-25T05:03:54.670Z,100444.94
2019-02-25T05:05:03.093Z,100442.76
2019-02-25T05:06:11.506Z,100440.14
2019-02-25T05:07:19.799Z,100432.34
2019-02-25T05:08:28.347Z,100436.70
2019-02-25T05:09:36.641Z,100431.48
2019-02-25T05:10:45.409Z,100431.53
2019-02-25T05:11:53.553Z,100423.66
2019-02-25T05:13:06.233Z,100424.97
2019-02-25T05:14:14.448Z,100433.30
2019-02-25T05:15:27.075Z,100435.48
2019-02-25T05:16:35.554Z,100439.02
2019-02-25T05:17:43.950Z,100435.12
2019-02-25T05:18:52.306Z,100434.70
2019-02-25T05:20:00.578Z,100433.39
2019-02-25T05:21:08.621Z,100429.91
2019-02-25T05:22:17.200Z,100430.41
2019-02-25T05:23:25.405Z,100428.23
2019-02-25T05:24:33.810Z,100423.94
2019-02-25T05:25:41.973Z,100429.19
2019-02-25T05:26:50.079Z,100426.61
2019-02-25T05:27:57.880Z,100428.82
2019-02-25T05:29:05.909Z,100425.74
2019-02-25T05:30:15.944Z,100435.84
2019-02-25T05:31:24.178Z,100423.17
2019-02-25T05:32:32.403Z,100425.84
2019-02-25T05:33:40.597Z,100430.69
2019-02-25T05:34:48.848Z,100423.30
2019-02-25T05:35:57.319Z,100426.79
2019-02-25T05:37:05.543Z,100422.45
2019-02-25T05:38:13.659Z,100434.31
2019-02-25T05:39:21.838Z,100431.73
2019-02-25T05:40:30.211Z,100428.24
2019-02-25T05:41:38.165Z,100433.95
2019-02-25T05:42:46.456Z,100431.28
2019-02-25T05:43:55.388Z,100435.27
2019-02-25T05:45:03.480Z,100433.05
2019-02-25T05:46:11.605Z,100422.98
2019-02-25T05:47:20.160Z,100423.89
2019-02-25T05:48:28.480Z,100420.77
2019-02-25T05:49:36.704Z,100420.36
2019-02-25T05:50:44.882Z,100416.83
2019-02-25T05:51:53.215Z,100426.02
2019-02-25T05:53:01.730Z,100428.16
2019-02-25T05:54:11.153Z,100420.73
2019-02-25T05:55:19.661Z,100425.08
2019-02-25T05:56:28.078Z,100415.42
2019-02-25T05:57:36.589Z,100418.91
2019-02-25T05:58:45.216Z,100414.47
2019-02-25T05:59:53.523Z,100414.47
2019-02-25T06:01:02.394Z,100415.83
2019-02-25T06:02:10.435Z,100410.12
2019-02-25T06:03:18.901Z,100419.27
2019-02-25T06:04:27.565Z,100424.98
2019-02-25T06:05:35.942Z,100430.64
2019-02-25T06:06:44.178Z,100425.84
2019-02-25T06:07:52.848Z,100422.27
2019-02-25T06:09:00.961Z,100439.79
2019-02-25T06:10:12.328Z,100438.02
2019-02-25T06:11:20.264Z,100436.17
2019-02-25T06:12:28.740Z,100439.16
2019-02-25T06:13:36.747Z,100441.78
2019-02-25T06:14:44.888Z,100440.42
2019-02-25T06:15:52.983Z,100442.09
2019-02-25T06:17:01.132Z,100441.23
2019-02-25T06:18:09.502Z,100444.73
2019-02-25T06:19:17.779Z,100451.70
2019-02-25T06:20:26.309Z,100450.38
2019-02-25T06:21:34.695Z,100450.25
2019-02-25T06:22:44.484Z,100451.51
2019-02-25T06:23:53.112Z,100455.72
2019-02-25T06:25:01.749Z,100442.93
2019-02-25T06:26:10.184Z,100455.47
2019-02-25T06:27:18.288Z,100451.42
2019-02-25T06:28:27.422Z,100451.78
2019-02-25T06:29:35.629Z,100450.83
2019-02-25T06:30:44.020Z,100449.91
2019-02-25T06:31:52.074Z,100450.68
2019-02-25T06:33:00.884Z,100452.36
2019-02-25T06:34:09.573Z,100444.91
2019-02-25T06:35:17.715Z,100442.18
2019-02-25T06:36:26.190Z,100442.18
2019-02-25T06:37:34.528Z,100435.15
2019-02-25T06:38:43.253Z,100433.78
2019-02-25T06:39:51.848Z,100433.33
2019-02-25T06:41:02.918Z,100425.08
2019-02-25T06:42:10.986Z,100433.83
2019-02-25T06:43:19.618Z,100429.89
2019-02-25T06:44:28.508Z,100428.52
2019-02-25T06:45:39.960Z,100437.67
2019-02-25T06:46:49.147Z,100434.58
2019-02-25T06:47:57.434Z,100438.53
2019-02-25T06:49:06.071Z,100439.80
2019-02-25T06:50:15.013Z,100434.48
2019-02-25T06:51:25.310Z,100436.19
2019-02-25T06:52:34.219Z,100440.50
2019-02-25T06:53:42.112Z,100439.64
2019-02-25T06:54:50.262Z,100434.38
2019-02-25T06:56:00.679Z,100432.61
2019-02-25T06:57:09.044Z,100435.14
2019-02-25T06:58:17.522Z,100430.73
2019-02-25T06:59:26.794Z,100432.03
2019-02-25T07:00:35.152Z,100431.58
2019-02-25T07:01:43.807Z,100433.70
2019-02-25T07:02:52.109Z,100431.98
2019-02-25T07:04:08.498Z,100437.61
2019-02-25T07:05:27.553Z,100438.42
2019-02-25T07:06:38.108Z,100429.14
2019-02-25T07:07:51.221Z,100437.85
2019-02-25T07:09:13.477Z,100433.79
2019-02-25T07:10:33.707Z,100432.32
2019-02-25T07:11:43.774Z,100424.31
2019-02-25T07:12:56.496Z,100422.01
2019-02-25T07:14:15.992Z,100424.54
2019-02-25T07:15:26.102Z,100422.24
2019-02-25T07:16:57.291Z,100418.14
2019-02-25T07:18:13.558Z,100414.98
2019-02-25T07:19:32.698Z,100417.45
2019-02-25T07:20:42.883Z,100420.48
2019-02-25T07:21:50.904Z,100415.45
2019-02-25T07:23:00.782Z,100415.89
2019-02-25T07:24:09.079Z,100416.65
2019-02-25T07:25:21.768Z,100402.11
2019-02-25T07:26:31.998Z,100404.66
2019-02-25T07:27:41.912Z,100411.60
2019-02-25T07:28:51.773Z,100411.42
2019-02-25T07:30:01.878Z,100403.84
2019-02-25T07:31:17.176Z,100416.86
2019-02-25T07:32:30.314Z,100408.41
2019-02-25T07:33:43.204Z,100416.65
2019-02-25T07:35:11.445Z,100414.80
2019-02-25T07:36:22.273Z,100416.81
2019-02-25T07:37:35.654Z,100409.63
2019-02-25T07:38:45.801Z,100414.44
2019-02-25T07:39:58.534Z,100413.45
2019-02-25T07:41:22.191Z,100420.33
2019-02-25T07:42:31.967Z,100415.38
2019-02-25T07:43:42.167Z,100413.46
2019-02-25T07:44:52.240Z,100411.98
2019-02-25T07:46:18.528Z,100409.72
2019-02-25T07:47:32.156Z,100406.45
2019-02-25T07:48:42.463Z,100402.30
2019-02-25T07:49:56.540Z,100403.01
2019-02-25T07:51:06.736Z,100403.29
2019-02-25T07:52:23.984Z,100400.97
2019-02-25T07:53:36.585Z,100393.31
2019-02-25T07:54:52.025Z,100399.72
2019-02-25T07:56:16.879Z,100391.32
2019-02-25T07:57:35.241Z,100392.13
2019-02-25T07:59:01.314Z,100392.98
2019-02-25T08:00:13.187Z,100395.09
2019-02-25T08:01:26.322Z,100391.52
2019-02-25T08:02:39.740Z,100387.59
2019-02-25T08:03:52.304Z,100390.19
2019-02-25T08:05:05.268Z,100403.66
2019-02-25T08:06:29.618Z,100404.44
2019-02-25T08:07:42.055Z,100400.42
2019-02-25T08:08:54.940Z,100414.35
2019-02-25T08:10:20.934Z,100415.12
2019-02-25T08:11:29.172Z,100410.95
2019-02-25T08:12:56.067Z,100412.95
2019-02-25T08:14:06.119Z,100413.26
2019-02-25T08:15:28.559Z,100404.66
2019-02-25T08:16:54.732Z,100406.22
2019-02-25T08:18:04.649Z,100408.21
2019-02-25T08:19:17.619Z,100402.00
2019-02-25T08:20:43.812Z,100398.34
2019-02-25T08:22:06.124Z,100404.33
2019-02-25T08:23:24.730Z,100401.47
2019-02-25T08:24:35.191Z,100394.17
2019-02-25T08:25:49.226Z,100389.92
2019-02-25T08:27:14.228Z,100398.44
2019-02-25T08:28:32.942Z,100395.10
2019-02-25T08:29:59.344Z,100399.23
2019-02-25T08:31:25.559Z,100394.57
2019-02-25T08:32:42.172Z,100407.16
2019-02-25T08:34:08.382Z,100413.63
2019-02-25T08:36:03.121Z,100411.34
2019-02-25T08:37:20.966Z,100404.97
2019-02-25T08:38:47.016Z,100407.54
2019-02-25T08:40:26.168Z,100410.84
2019-02-25T08:41:40.513Z,100407.69
2019-02-25T08:42:48.309Z,100403.73
2019-02-25T08:44:04.222Z,100410.73
2019-02-25T08:45:12.481Z,100406.30
2019-02-25T08:46:34.348Z,100405.70
2019-02-25T08:47:46.707Z,100406.52
2019-02-25T08:48:56.436Z,100397.45
2019-02-25T08:50:06.831Z,100395.17
2019-02-25T08:51:15.018Z,100397.28
2019-02-25T08:52:24.696Z,100402.97
2019-02-25T08:53:32.884Z,100397.61
2019-02-25T08:54:41.324Z,100405.90
2019-02-25T08:55:50.114Z,100415.55
2019-02-25T08:56:58.692Z,100397.36
2019-02-25T08:58:07.387Z,100406.12
2019-02-25T08:59:15.896Z,100406.94
2019-02-25T09:00:23.927Z,100412.16
2019-02-25T09:01:32.755Z,100408.66
2019-02-25T09:02:41.673Z,100417.91
2019-02-25T09:03:50.021Z,100418.02
2019-02-25T09:04:58.423Z,100421.62
2019-02-25T09:06:06.625Z,100427.75
2019-02-25T09:07:15.521Z,100430.78
2019-02-25T09:08:23.587Z,100422.84
2019-02-25T09:09:32.015Z,100426.31
2019-02-25T09:10:40.661Z,100426.71
2019-02-25T09:11:49.240Z,100430.14
2019-02-25T09:12:57.252Z,100414.70
2019-02-25T09:14:05.763Z,100408.98
2019-02-25T09:15:17.081Z,100393.70
2019-02-25T09:16:25.410Z,100398.14
2019-02-25T09:17:36.557Z,100385.81
2019-02-25T09:18:46.933Z,100378.69
2019-02-25T09:19:54.945Z,100385.16
2019-02-25T09:21:03.403Z,100381.16
2019-02-25T09:22:12.024Z,100371.44
2019-02-25T09:23:20.369Z,100374.87
2019-02-25T09:24:28.867Z,100373.08
2019-02-25T09:25:36.847Z,100374.33
2019-02-25T09:26:45.164Z,100370.75
2019-02-25T09:27:53.497Z,100378.97
2019-02-25T09:29:01.921Z,100384.94
2019-02-25T09:30:15.989Z,100387.45
2019-02-25T09:31:24.216Z,100394.59
2019-02-25T09:32:32.184Z,100400.48
2019-02-25T09:33:40.893Z,100393.21
2019-02-25T09:34:49.578Z,100394.46
2019-02-25T09:35:57.831Z,100399.22
2019-02-25T09:37:05.927Z,100387.19
2019-02-25T09:38:14.787Z,100392.48
2019-02-25T09:39:22.948Z,100403.47
2019-02-25T09:40:31.100Z,100389.56
2019-02-25T09:41:39.738Z,100404.44
2019-02-25T09:42:47.686Z,100410.55
2019-02-25T09:43:56.246Z,100411.19
2019-02-25T09:45:05.850Z,100413.41
2019-02-25T09:46:14.228Z,100411.00
2019-02-25T09:47:22.488Z,100409.49
2019-02-25T09:48:30.534Z,100413.70
2019-02-25T09:49:38.894Z,100413.05
2019-02-25T09:50:46.918Z,100419.09
2019-02-25T09:51:54.976Z,100412.39
2019-02-25T09:53:03.179Z,100409.98
2019-02-25T09:54:11.377Z,100415.95
2019-02-25T09:55:20.085Z,100417.94
2019-02-25T09:56:28.187Z,100411.08
2019-02-25T09:57:36.215Z,100413.53
2019-02-25T09:58:44.632Z,100422.07
2019-02-25T09:59:52.987Z,100425.30
2019-02-25T10:01:01.611Z,100413.87
2019-02-25T10:02:10.149Z,100415.78
2019-02-25T10:03:18.511Z,100419.09
2019-02-25T10:04:26.546Z,100411.37
2019-02-25T10:05:34.702Z,100405.86
2019-02-25T10:06:42.804Z,100408.66
2019-02-25T10:07:50.968Z,100409.23
2019-02-25T10:08:59.140Z,100404.11
2019-02-25T10:10:14.162Z,100417.08
2019-02-25T10:11:22.559Z,100416.02
2019-02-25T10:12:30.803Z,100405.50
2019-02-25T10:13:38.954Z,100403.84
2019-02-25T10:14:49.447Z,100401.01
2019-02-25T10:15:57.561Z,100395.53
2019-02-25T10:17:05.600Z,100394.62
2019-02-25T10:18:14.007Z,100393.30
2019-02-25T10:19:22.495Z,100398.14
2019-02-25T10:20:30.782Z,100405.16
2019-02-25T10:21:39.188Z,100408.45
2019-02-25T10:22:47.330Z,100417.58
2019-02-25T10:23:55.928Z,100405.47
2019-02-25T10:25:04.832Z,100409.23
2019-02-25T10:26:13.181Z,100413.30
2019-02-25T10:27:21.335Z,100416.42
2019-02-25T10:28:29.643Z,100408.54
2019-02-25T10:29:38.053Z,100415.48
2019-02-25T10:30:52.590Z,100408.70
2019-02-25T10:31:56.300Z,100411.58
2019-02-25T10:33:04.690Z,100417.74
2019-02-25T10:34:13.243Z,100410.25
2019-02-25T10:35:27.208Z,100420.87
2019-02-25T10:36:36.048Z,100411.99
2019-02-25T10:37:44.185Z,100414.86
2019-02-25T10:38:52.533Z,100418.29
2019-02-25T10:40:00.992Z,100416.44
2019-02-25T10:41:09.262Z,100412.84
2019-02-25T10:42:18.024Z,100415.49
2019-02-25T10:43:28.086Z,100413.61
2019-02-25T10:44:38.176Z,100405.94
2019-02-25T10:45:47.007Z,100408.66
2019-02-25T10:46:55.359Z,100396.78
2019-02-25T10:48:03.877Z,100398.64
2019-02-25T10:49:12.321Z,100398.23
2019-02-25T10:50:21.013Z,100391.74
2019-02-25T10:51:29.173Z,100393.59
2019-02-25T10:52:38.772Z,100385.53
2019-02-25T10:53:49.426Z,100382.87
2019-02-25T10:54:58.312Z,100390.70
2019-02-25T10:56:19.275Z,100386.54
2019-02-25T10:57:29.091Z,100380.04
2019-02-25T10:58:36.925Z,100365.17
2019-02-25T10:59:45.263Z,100367.88
2019-02-25T11:00:53.631Z,100370.17
2019-02-25T11:02:01.935Z,100372.20
2019-02-25T11:03:12.378Z,100361.33
2019-02-25T11:04:21.796Z,100363.80
2019-02-25T11:05:30.637Z,100365.30
2019-02-25T11:06:39.083Z,100363.21
2019-02-25T11:07:48.200Z,100359.06
2019-02-25T11:08:58.242Z,100356.22
2019-02-25T11:10:27.128Z,100358.63
2019-02-25T11:11:40.122Z,100356.95
2019-02-25T11:12:48.674Z,100342.73
2019-02-25T11:13:58.774Z,100348.08
2019-02-25T11:15:13.907Z,100349.81
2019-02-25T11:16:23.464Z,100336.91
2019-02-25T11:17:31.761Z,100334.75
2019-02-25T11:18:40.547Z,100324.11
2019-02-25T11:19:49.077Z,100328.13
2019-02-25T11:20:59.008Z,100335.54
2019-02-25T11:22:09.990Z,100336.23
2019-02-25T11:23:19.401Z,100337.36
2019-02-25T11:24:28.609Z,100323.95
2019-02-25T11:25:37.032Z,100322.34
2019-02-25T11:26:45.336Z,100317.23
2019-02-25T11:27:53.818Z,100331.00
2019-02-25T11:29:02.689Z,100335.48
2019-02-25T11:30:18.874Z,100323.12
2019-02-25T11:31:29.095Z,100322.64
2019-02-25T11:32:36.754Z,100331.20
2019-02-25T11:33:44.952Z,100323.70
2019-02-25T11:34:53.687Z,100326.46
2019-02-25T11:36:01.863Z,100320.34
2019-02-25T11:37:10.014Z,100310.58
2019-02-25T11:38:18.711Z,100318.56
2019-02-25T11:39:29.677Z,100313.98
2019-02-25T11:40:38.370Z,100312.44
2019-02-25T11:41:46.855Z,100313.12
2019-02-25T11:42:54.964Z,100306.62
2019-02-25T11:44:03.164Z,100297.41
2019-02-25T11:45:14.641Z,100297.51
2019-02-25T11:46:23.254Z,100289.23
2019-02-25T11:47:31.556Z,100291.33
2019-02-25T11:48:39.570Z,100297.41
2019-02-25T11:49:47.772Z,100283.98
2019-02-25T11:50:56.354Z,100282.39
2019-02-25T11:52:04.892Z,100280.69
2019-02-25T11:53:13.007Z,100282.02
2019-02-25T11:54:21.260Z,100270.03
2019-02-25T11:55:29.669Z,100273.81
2019-02-25T11:56:38.531Z,100264.86
2019-02-25T11:57:46.991Z,100284.70
2019-02-25T11:58:55.253Z,100285.07
2019-02-25T12:00:03.416Z,100276.58
2019-02-25T12:01:11.887Z,100282.86
2019-02-25T12:02:25.431Z,100278.16
2019-02-25T12:03:29.992Z,100275.69
2019-02-25T12:04:39.149Z,100267.85
2019-02-25T12:05:47.556Z,100268.16
2019-02-25T12:07:01.322Z,100265.64
2019-02-25T12:08:12.584Z,100265.36
2019-02-25T12:09:21.360Z,100264.95
2019-02-25T12:10:30.051Z,100264.95
2019-02-25T12:11:38.310Z,100258.66
2019-02-25T12:12:46.860Z,100255.52
2019-02-25T12:13:55.538Z,100254.17
2019-02-25T12:15:03.863Z,100252.73
2019-02-25T12:16:12.197Z,100257.22
2019-02-25T12:17:20.458Z,100248.73
2019-02-25T12:18:29.132Z,100246.44
2019-02-25T12:19:37.514Z,100244.36
2019-02-25T12:20:45.724Z,100245.70
2019-02-25T12:21:54.000Z,100240.06
2019-02-25T12:23:02.518Z,100235.84
2019-02-25T12:24:11.057Z,100234.88
2019-02-25T12:25:27.049Z,100225.84
2019-02-25T12:26:35.514Z,100241.15
2019-02-25T12:27:43.885Z,100240.67
2019-02-25T12:28:53.251Z,100224.88
2019-02-25T12:30:01.547Z,100230.13
2019-02-25T12:31:09.955Z,100223.20
2019-02-25T12:32:17.849Z,100222.72
2019-02-25T12:33:27.477Z,100225.87
2019-02-25T12:34:35.702Z,100225.02
2019-02-25T12:35:44.273Z,100219.97
2019-02-25T12:36:52.693Z,100222.94
2019-02-25T12:38:01.099Z,100220.11
2019-02-25T12:39:09.595Z,100222.78
2019-02-25T12:40:20.162Z,100208.85
2019-02-25T12:41:28.556Z,100211.30
2019-02-25T12:42:36.692Z,100214.27
2019-02-25T12:43:44.705Z,100204.52
2019-02-25T12:44:53.459Z,100201.41
2019-02-25T12:46:01.995Z,100199.04
2019-02-25T12:47:10.427Z,100205.86
2019-02-25T12:48:18.673Z,100202.15
2019-02-25T12:49:27.195Z,100192.59
2019-02-25T12:50:35.384Z,100189.55
2019-02-25T12:51:43.578Z,100186.66
2019-02-25T12:52:51.630Z,100186.99
2019-02-25T12:53:59.787Z,100181.36
2019-02-25T12:55:16.562Z,100184.73
2019-02-25T12:56:25.082Z,100181.69
2019-02-25T12:57:33.261Z,100174.17
2019-02-25T12:58:41.465Z,100171.69
2019-02-25T12:59:49.931Z,100165.61
2019-02-25T13:00:58.171Z,100164.98
2019-02-25T13:02:06.437Z,100167.16
2019-02-25T13:03:14.715Z,100161.91
2019-02-25T13:04:23.199Z,100151.72
2019-02-25T13:05:31.901Z,100157.48
2019-02-25T13:06:40.431Z,100148.72
2019-02-25T13:07:48.733Z,100154.94
2019-02-25T13:08:57.079Z,100148.41
2019-02-25T13:10:08.636Z,100150.15
2019-02-25T13:11:16.887Z,100140.84
2019-02-25T13:12:25.297Z,100143.73
2019-02-25T13:13:33.852Z,100148.31
2019-02-25T13:14:42.225Z,100133.66
2019-02-25T13:15:50.524Z,100135.46
2019-02-25T13:16:59.305Z,100137.24
2019-02-25T13:18:07.628Z,100136.13